Terminal Aerodrome Forecast
Issued by NWS

Home | Current Version | Previous Version | Graphics & Text | Print | Product List | Glossary On
Versions: 1 2 3 4 5 6 7 8 9 10 11 12 13 14 15 16 17
784
FTUS43 KFGF 052339
TAFBJI
TAF
KBJI 052339Z 0600/0624 10009KT 1/2SM SN OVC007
     FM060300 10009KT 3SM -SN OVC008
     FM060500 13009KT 4SM -SN OVC008
     FM060600 14009KT 4SM -SN OVC008
     FM061900 24017KT 1 1/2SM -SN BLSN OVC008
     FM062300 26020G28KT 3SM -SN BLSN OVC008=

USA.gov is the U.S. government's official web portal to all federal, state and local government web resources and services.